CheckWX is a tool to help pilots better visualize weather data.  It is not intended as a substitute for an official pre-flight weather briefing.

01:21:19 UTC

KSSF METAR
Stinson Municipal Airport
San Antonio, Texas, USA
Current

28 mins ago

KSSF 150053Z 00000KT 10SM CLR 32/18 A2988 RMK AO2 SLPNO T03170183
Observed
Oct-15 @ 00:53 UTC
Visibility
10 SM
Flight Rules
VFR
Cloud Levels
  • Clear skies
Temperature
32°C / 90°F
Dewpoint
18°C / 64°F
Heat Index
33°C / 92°F
Humidity
43%
Altimeter
29.88" Hg
Pressure
1011.82 hPa
Previous

1 hour ago

KSSF 142353Z 20003KT 10SM BKN070 32/18 A2987 RMK AO2 SLPNO T03220183 10322 20289 53001
Observed
Oct-14 @ 23:53 UTC
Wind
  • 200° at 3 KTS
Visibility
10 SM
Flight Rules
VFR
Cloud Levels
  • Broken at 7,000' AGL
Temperature
32°C / 90°F
Dewpoint
18°C / 64°F
Heat Index
33°C / 92°F
Humidity
43%
Altimeter
29.87" Hg
Pressure
1011.52 hPa
Previous

2 hours ago

KSSF 142253Z 20005KT 10SM BKN070 31/19 A2986 RMK AO2 SLPNO T03110189
Observed
Oct-14 @ 22:53 UTC
Wind
  • 200° at 5 KTS
Visibility
10 SM
Flight Rules
VFR
Cloud Levels
  • Broken at 7,000' AGL
Temperature
31°C / 88°F
Dewpoint
19°C / 66°F
Heat Index
33°C / 91°F
Humidity
49%
Altimeter
29.86" Hg
Pressure
1011.22 hPa